sensor_id;sensor_type;location;lat;lon;timestamp;pressure;altitude;pressure_sealevel;temperature
44429;BMP180;30134;47.866;-4.222;2022-12-29T00:02:20;100669.00;;;26.10
44429;BMP180;30134;47.866;-4.222;2022-12-29T00:04:46;100667.00;;;26.10
44429;BMP180;30134;47.866;-4.222;2022-12-29T00:07:12;100666.00;;;26.10
44429;BMP180;30134;47.866;-4.222;2022-12-29T00:09:37;100657.00;;;26.10
44429;BMP180;30134;47.866;-4.222;2022-12-29T00:12:04;100666.00;;;26.10
44429;BMP180;30134;47.866;-4.222;2022-12-29T00:14:30;100666.00;;;26.00
44429;BMP180;30134;47.866;-4.222;2022-12-29T00:17:17;100675.00;;;26.00
44429;BMP180;30134;47.866;-4.222;2022-12-29T00:19:43;100666.00;;;26.00
44429;BMP180;30134;47.866;-4.222;2022-12-29T00:22:34;100674.00;;;26.00
44429;BMP180;30134;47.866;-4.222;2022-12-29T00:25:19;100673.00;;;26.00
44429;BMP180;30134;47.866;-4.222;2022-12-29T00:28:04;100684.00;;;26.00
44429;BMP180;30134;47.866;-4.222;2022-12-29T00:30:51;100672.00;;;26.00
44429;BMP180;30134;47.866;-4.222;2022-12-29T00:33:35;100686.00;;;26.00
44429;BMP180;30134;47.866;-4.222;2022-12-29T00:36:35;100681.00;;;25.90
44429;BMP180;30134;47.866;-4.222;2022-12-29T00:39:12;100679.00;;;25.90
44429;BMP180;30134;47.866;-4.222;2022-12-29T00:42:06;100681.00;;;25.90
44429;BMP180;30134;47.866;-4.222;2022-12-29T00:45:04;100683.00;;;25.90
44429;BMP180;30134;47.866;-4.222;2022-12-29T00:47:30;100681.00;;;25.90
44429;BMP180;30134;47.866;-4.222;2022-12-29T00:49:56;100682.00;;;25.90
44429;BMP180;30134;47.866;-4.222;2022-12-29T00:52:22;100673.00;;;25.90
44429;BMP180;30134;47.866;-4.222;2022-12-29T00:54:48;100681.00;;;25.90
44429;BMP180;30134;47.866;-4.222;2022-12-29T00:57:14;100677.00;;;25.90
44429;BMP180;30134;47.866;-4.222;2022-12-29T00:59:41;100678.00;;;25.80
44429;BMP180;30134;47.866;-4.222;2022-12-29T01:02:08;100675.00;;;25.80
44429;BMP180;30134;47.866;-4.222;2022-12-29T01:04:34;100672.00;;;25.80
44429;BMP180;30134;47.866;-4.222;2022-12-29T01:07:00;100681.00;;;25.80
44429;BMP180;30134;47.866;-4.222;2022-12-29T01:09:26;100672.00;;;25.80
44429;BMP180;30134;47.866;-4.222;2022-12-29T01:12:11;100687.00;;;25.80
44429;BMP180;30134;47.866;-4.222;2022-12-29T01:14:37;100681.00;;;25.80
44429;BMP180;30134;47.866;-4.222;2022-12-29T01:17:03;100678.00;;;25.80
44429;BMP180;30134;47.866;-4.222;2022-12-29T01:19:30;100677.00;;;25.70
44429;BMP180;30134;47.866;-4.222;2022-12-29T01:21:56;100678.00;;;25.70
44429;BMP180;30134;47.866;-4.222;2022-12-29T01:24:22;100672.00;;;25.70
44429;BMP180;30134;47.866;-4.222;2022-12-29T01:26:48;100676.00;;;25.70
44429;BMP180;30134;47.866;-4.222;2022-12-29T01:29:14;100686.00;;;25.70
44429;BMP180;30134;47.866;-4.222;2022-12-29T01:31:40;100682.00;;;25.70
44429;BMP180;30134;47.866;-4.222;2022-12-29T01:34:06;100679.00;;;25.70
44429;BMP180;30134;47.866;-4.222;2022-12-29T01:36:33;100678.00;;;25.70
44429;BMP180;30134;47.866;-4.222;2022-12-29T01:38:59;100697.00;;;25.70
44429;BMP180;30134;47.866;-4.222;2022-12-29T01:41:25;100695.00;;;25.70
44429;BMP180;30134;47.866;-4.222;2022-12-29T01:43:59;100692.00;;;25.70
44429;BMP180;30134;47.866;-4.222;2022-12-29T01:46:39;100701.00;;;25.60
44429;BMP180;30134;47.866;-4.222;2022-12-29T01:49:11;100689.00;;;25.60
44429;BMP180;30134;47.866;-4.222;2022-12-29T01:52:00;100692.00;;;25.60
44429;BMP180;30134;47.866;-4.222;2022-12-29T01:54:34;100690.00;;;25.60
44429;BMP180;30134;47.866;-4.222;2022-12-29T01:57:02;100698.00;;;25.60
44429;BMP180;30134;47.866;-4.222;2022-12-29T01:59:33;100699.00;;;25.60
44429;BMP180;30134;47.866;-4.222;2022-12-29T02:02:00;100701.00;;;25.60
44429;BMP180;30134;47.866;-4.222;2022-12-29T02:04:26;100711.00;;;25.60
44429;BMP180;30134;47.866;-4.222;2022-12-29T02:06:57;100713.00;;;25.60
44429;BMP180;30134;47.866;-4.222;2022-12-29T02:09:25;100713.00;;;25.50
44429;BMP180;30134;47.866;-4.222;2022-12-29T02:11:51;100715.00;;;25.50
44429;BMP180;30134;47.866;-4.222;2022-12-29T02:14:17;100724.00;;;25.50
44429;BMP180;30134;47.866;-4.222;2022-12-29T02:25:06;100721.00;;;25.50
44429;BMP180;30134;47.866;-4.222;2022-12-29T02:27:50;100725.00;;;25.50
44429;BMP180;30134;47.866;-4.222;2022-12-29T02:46:59;100748.00;;;25.40
44429;BMP180;30134;47.866;-4.222;2022-12-29T02:49:44;100757.00;;;25.40
44429;BMP180;30134;47.866;-4.222;2022-12-29T02:52:25;100748.00;;;25.40
44429;BMP180;30134;47.866;-4.222;2022-12-29T02:54:54;100763.00;;;25.40
44429;BMP180;30134;47.866;-4.222;2022-12-29T02:59:47;100778.00;;;25.30
44429;BMP180;30134;47.866;-4.222;2022-12-29T03:03:05;100776.00;;;25.30
44429;BMP180;30134;47.866;-4.222;2022-12-29T03:11:45;100786.00;;;25.30
44429;BMP180;30134;47.866;-4.222;2022-12-29T03:14:33;100779.00;;;25.30
44429;BMP180;30134;47.866;-4.222;2022-12-29T03:17:29;100786.00;;;25.30
44429;BMP180;30134;47.866;-4.222;2022-12-29T03:20:01;100796.00;;;25.30
44429;BMP180;30134;47.866;-4.222;2022-12-29T03:22:30;100793.00;;;25.30
44429;BMP180;30134;47.866;-4.222;2022-12-29T03:25:19;100777.00;;;25.30
44429;BMP180;30134;47.866;-4.222;2022-12-29T03:27:55;100781.00;;;25.20
44429;BMP180;30134;47.866;-4.222;2022-12-29T03:30:21;100783.00;;;25.20
44429;BMP180;30134;47.866;-4.222;2022-12-29T03:32:52;100783.00;;;25.20
44429;BMP180;30134;47.866;-4.222;2022-12-29T03:35:20;100790.00;;;25.20
44429;BMP180;30134;47.866;-4.222;2022-12-29T03:38:23;100784.00;;;25.20
44429;BMP180;30134;47.866;-4.222;2022-12-29T03:40:56;100778.00;;;25.20
44429;BMP180;30134;47.866;-4.222;2022-12-29T03:43:23;100778.00;;;25.20
44429;BMP180;30134;47.866;-4.222;2022-12-29T03:45:49;100782.00;;;25.20
44429;BMP180;30134;47.866;-4.222;2022-12-29T03:48:15;100784.00;;;25.20
44429;BMP180;30134;47.866;-4.222;2022-12-29T03:50:41;100790.00;;;25.20
44429;BMP180;30134;47.866;-4.222;2022-12-29T03:53:07;100787.00;;;25.20
44429;BMP180;30134;47.866;-4.222;2022-12-29T03:55:33;100787.00;;;25.20
44429;BMP180;30134;47.866;-4.222;2022-12-29T03:58:02;100780.00;;;25.20
44429;BMP180;30134;47.866;-4.222;2022-12-29T04:00:27;100786.00;;;25.20
44429;BMP180;30134;47.866;-4.222;2022-12-29T04:02:53;100783.00;;;25.20
44429;BMP180;30134;47.866;-4.222;2022-12-29T04:05:20;100781.00;;;25.20
44429;BMP180;30134;47.866;-4.222;2022-12-29T04:07:46;100783.00;;;25.10
44429;BMP180;30134;47.866;-4.222;2022-12-29T04:10:12;100804.00;;;25.10
44429;BMP180;30134;47.866;-4.222;2022-12-29T04:12:38;100795.00;;;25.10
44429;BMP180;30134;47.866;-4.222;2022-12-29T04:15:04;100821.00;;;25.10
44429;BMP180;30134;47.866;-4.222;2022-12-29T04:17:30;100823.00;;;25.10
44429;BMP180;30134;47.866;-4.222;2022-12-29T04:19:56;100822.00;;;25.10
44429;BMP180;30134;47.866;-4.222;2022-12-29T04:22:42;100819.00;;;25.10
44429;BMP180;30134;47.866;-4.222;2022-12-29T04:25:08;100810.00;;;25.10
44429;BMP180;30134;47.866;-4.222;2022-12-29T04:27:34;100818.00;;;25.10
44429;BMP180;30134;47.866;-4.222;2022-12-29T04:29:59;100825.00;;;25.00
44429;BMP180;30134;47.866;-4.222;2022-12-29T04:32:25;100834.00;;;25.00
44429;BMP180;30134;47.866;-4.222;2022-12-29T04:34:57;100850.00;;;25.00
44429;BMP180;30134;47.866;-4.222;2022-12-29T04:37:23;100836.00;;;25.00
44429;BMP180;30134;47.866;-4.222;2022-12-29T04:39:49;100836.00;;;25.00
44429;BMP180;30134;47.866;-4.222;2022-12-29T04:42:15;100836.00;;;25.00
44429;BMP180;30134;47.866;-4.222;2022-12-29T04:44:41;100832.00;;;25.00
44429;BMP180;30134;47.866;-4.222;2022-12-29T04:47:06;100830.00;;;25.00
44429;BMP180;30134;47.866;-4.222;2022-12-29T04:49:32;100829.00;;;25.00
44429;BMP180;30134;47.866;-4.222;2022-12-29T04:51:58;100828.00;;;25.00
44429;BMP180;30134;47.866;-4.222;2022-12-29T04:54:24;100830.00;;;25.00
44429;BMP180;30134;47.866;-4.222;2022-12-29T04:56:50;100836.00;;;25.00
44429;BMP180;30134;47.866;-4.222;2022-12-29T04:59:15;100835.00;;;25.00
44429;BMP180;30134;47.866;-4.222;2022-12-29T05:01:43;100844.00;;;25.00
44429;BMP180;30134;47.866;-4.222;2022-12-29T05:04:09;100847.00;;;24.90
44429;BMP180;30134;47.866;-4.222;2022-12-29T05:06:34;100855.00;;;25.00
44429;BMP180;30134;47.866;-4.222;2022-12-29T05:09:00;100857.00;;;25.00
44429;BMP180;30134;47.866;-4.222;2022-12-29T05:11:26;100854.00;;;24.90
44429;BMP180;30134;47.866;-4.222;2022-12-29T05:13:52;100853.00;;;24.90
44429;BMP180;30134;47.866;-4.222;2022-12-29T05:16:18;100847.00;;;24.90
44429;BMP180;30134;47.866;-4.222;2022-12-29T05:18:44;100851.00;;;24.90
44429;BMP180;30134;47.866;-4.222;2022-12-29T05:21:09;100844.00;;;24.90
44429;BMP180;30134;47.866;-4.222;2022-12-29T05:23:35;100838.00;;;24.90
44429;BMP180;30134;47.866;-4.222;2022-12-29T05:26:01;100837.00;;;24.90
44429;BMP180;30134;47.866;-4.222;2022-12-29T05:28:27;100850.00;;;24.90
44429;BMP180;30134;47.866;-4.222;2022-12-29T05:30:53;100854.00;;;24.90
44429;BMP180;30134;47.866;-4.222;2022-12-29T05:33:19;100856.00;;;24.90
44429;BMP180;30134;47.866;-4.222;2022-12-29T05:35:45;100849.00;;;24.90
44429;BMP180;30134;47.866;-4.222;2022-12-29T05:38:11;100866.00;;;24.90
44429;BMP180;30134;47.866;-4.222;2022-12-29T05:40:37;100860.00;;;24.90
44429;BMP180;30134;47.866;-4.222;2022-12-29T05:43:03;100855.00;;;24.90
44429;BMP180;30134;47.866;-4.222;2022-12-29T05:45:28;100860.00;;;24.90
44429;BMP180;30134;47.866;-4.222;2022-12-29T05:47:54;100854.00;;;24.80
44429;BMP180;30134;47.866;-4.222;2022-12-29T05:50:20;100857.00;;;24.80
44429;BMP180;30134;47.866;-4.222;2022-12-29T05:52:46;100862.00;;;24.80
44429;BMP180;30134;47.866;-4.222;2022-12-29T05:55:12;100872.00;;;24.80
44429;BMP180;30134;47.866;-4.222;2022-12-29T05:57:38;100860.00;;;24.80
44429;BMP180;30134;47.866;-4.222;2022-12-29T06:00:05;100869.00;;;24.80
44429;BMP180;30134;47.866;-4.222;2022-12-29T06:02:32;100871.00;;;24.80
44429;BMP180;30134;47.866;-4.222;2022-12-29T06:04:58;100889.00;;;24.80
44429;BMP180;30134;47.866;-4.222;2022-12-29T06:07:23;100889.00;;;24.80
44429;BMP180;30134;47.866;-4.222;2022-12-29T06:09:49;100871.00;;;24.80
44429;BMP180;30134;47.866;-4.222;2022-12-29T06:12:15;100869.00;;;24.80
44429;BMP180;30134;47.866;-4.222;2022-12-29T06:14:42;100870.00;;;24.80
44429;BMP180;30134;47.866;-4.222;2022-12-29T06:17:07;100883.00;;;24.80
44429;BMP180;30134;47.866;-4.222;2022-12-29T06:19:33;100873.00;;;24.80
44429;BMP180;30134;47.866;-4.222;2022-12-29T06:21:59;100882.00;;;24.80
44429;BMP180;30134;47.866;-4.222;2022-12-29T06:24:25;100868.00;;;24.70
44429;BMP180;30134;47.866;-4.222;2022-12-29T06:26:51;100879.00;;;24.70
44429;BMP180;30134;47.866;-4.222;2022-12-29T06:29:17;100884.00;;;24.70
44429;BMP180;30134;47.866;-4.222;2022-12-29T06:31:44;100893.00;;;24.70
44429;BMP180;30134;47.866;-4.222;2022-12-29T06:34:14;100901.00;;;24.70
44429;BMP180;30134;47.866;-4.222;2022-12-29T06:36:40;100899.00;;;24.70
44429;BMP180;30134;47.866;-4.222;2022-12-29T06:39:06;100906.00;;;24.70
44429;BMP180;30134;47.866;-4.222;2022-12-29T06:41:32;100910.00;;;24.70
44429;BMP180;30134;47.866;-4.222;2022-12-29T06:43:57;100904.00;;;24.70
44429;BMP180;30134;47.866;-4.222;2022-12-29T06:46:23;100918.00;;;24.70
44429;BMP180;30134;47.866;-4.222;2022-12-29T06:48:49;100918.00;;;24.70
44429;BMP180;30134;47.866;-4.222;2022-12-29T06:51:15;100915.00;;;24.70
44429;BMP180;30134;47.866;-4.222;2022-12-29T06:53:41;100913.00;;;24.70
44429;BMP180;30134;47.866;-4.222;2022-12-29T06:56:07;100913.00;;;24.70
44429;BMP180;30134;47.866;-4.222;2022-12-29T06:58:33;100914.00;;;24.70
44429;BMP180;30134;47.866;-4.222;2022-12-29T07:00:59;100912.00;;;24.70
44429;BMP180;30134;47.866;-4.222;2022-12-29T07:03:25;100909.00;;;24.60
44429;BMP180;30134;47.866;-4.222;2022-12-29T07:05:51;100917.00;;;24.60
44429;BMP180;30134;47.866;-4.222;2022-12-29T07:08:17;100928.00;;;24.60
44429;BMP180;30134;47.866;-4.222;2022-12-29T07:10:42;100933.00;;;24.60
44429;BMP180;30134;47.866;-4.222;2022-12-29T07:13:08;100935.00;;;24.60
44429;BMP180;30134;47.866;-4.222;2022-12-29T07:15:36;100934.00;;;24.60
44429;BMP180;30134;47.866;-4.222;2022-12-29T07:18:02;100941.00;;;24.60
44429;BMP180;30134;47.866;-4.222;2022-12-29T07:20:29;100941.00;;;24.60
44429;BMP180;30134;47.866;-4.222;2022-12-29T07:22:55;100942.00;;;24.60
44429;BMP180;30134;47.866;-4.222;2022-12-29T07:25:21;100945.00;;;24.60
44429;BMP180;30134;47.866;-4.222;2022-12-29T07:27:48;100942.00;;;24.60
44429;BMP180;30134;47.866;-4.222;2022-12-29T07:30:14;100951.00;;;24.60
44429;BMP180;30134;47.866;-4.222;2022-12-29T07:32:40;100959.00;;;24.60
44429;BMP180;30134;47.866;-4.222;2022-12-29T07:35:06;100966.00;;;24.60
44429;BMP180;30134;47.866;-4.222;2022-12-29T07:37:33;100960.00;;;24.60
44429;BMP180;30134;47.866;-4.222;2022-12-29T07:40:00;100955.00;;;24.60
44429;BMP180;30134;47.866;-4.222;2022-12-29T07:42:26;100964.00;;;24.60
44429;BMP180;30134;47.866;-4.222;2022-12-29T07:44:52;100953.00;;;24.60
44429;BMP180;30134;47.866;-4.222;2022-12-29T07:47:18;100957.00;;;24.50
44429;BMP180;30134;47.866;-4.222;2022-12-29T07:49:44;100955.00;;;24.50
44429;BMP180;30134;47.866;-4.222;2022-12-29T07:52:10;100956.00;;;24.50
44429;BMP180;30134;47.866;-4.222;2022-12-29T07:54:35;100956.00;;;24.50
44429;BMP180;30134;47.866;-4.222;2022-12-29T07:57:01;100957.00;;;24.50
44429;BMP180;30134;47.866;-4.222;2022-12-29T07:59:27;100966.00;;;24.50
44429;BMP180;30134;47.866;-4.222;2022-12-29T08:01:53;100966.00;;;24.50
44429;BMP180;30134;47.866;-4.222;2022-12-29T08:04:19;100970.00;;;24.50
44429;BMP180;30134;47.866;-4.222;2022-12-29T08:06:45;100979.00;;;24.50
44429;BMP180;30134;47.866;-4.222;2022-12-29T08:09:11;100988.00;;;24.50
44429;BMP180;30134;47.866;-4.222;2022-12-29T08:11:37;100992.00;;;24.50
44429;BMP180;30134;47.866;-4.222;2022-12-29T08:14:03;100987.00;;;24.50
44429;BMP180;30134;47.866;-4.222;2022-12-29T08:16:29;100994.00;;;24.50
44429;BMP180;30134;47.866;-4.222;2022-12-29T08:18:56;100993.00;;;24.50
44429;BMP180;30134;47.866;-4.222;2022-12-29T08:21:22;100991.00;;;24.50
44429;BMP180;30134;47.866;-4.222;2022-12-29T08:23:48;100994.00;;;24.50
44429;BMP180;30134;47.866;-4.222;2022-12-29T08:26:13;100997.00;;;24.40
44429;BMP180;30134;47.866;-4.222;2022-12-29T08:28:42;101002.00;;;24.40
44429;BMP180;30134;47.866;-4.222;2022-12-29T08:31:08;101009.00;;;24.40
44429;BMP180;30134;47.866;-4.222;2022-12-29T08:33:34;101008.00;;;24.40
44429;BMP180;30134;47.866;-4.222;2022-12-29T08:36:02;101017.00;;;24.40
44429;BMP180;30134;47.866;-4.222;2022-12-29T08:38:29;101010.00;;;24.40
44429;BMP180;30134;47.866;-4.222;2022-12-29T08:40:56;101014.00;;;24.40
44429;BMP180;30134;47.866;-4.222;2022-12-29T08:43:23;101019.00;;;24.40
44429;BMP180;30134;47.866;-4.222;2022-12-29T08:45:50;101026.00;;;24.40
44429;BMP180;30134;47.866;-4.222;2022-12-29T08:48:16;101038.00;;;24.30
44429;BMP180;30134;47.866;-4.222;2022-12-29T08:50:45;101035.00;;;24.30
44429;BMP180;30134;47.866;-4.222;2022-12-29T08:53:15;101038.00;;;24.30
44429;BMP180;30134;47.866;-4.222;2022-12-29T08:55:41;101044.00;;;24.30
44429;BMP180;30134;47.866;-4.222;2022-12-29T08:58:07;101042.00;;;24.30
44429;BMP180;30134;47.866;-4.222;2022-12-29T09:00:33;101051.00;;;24.30
44429;BMP180;30134;47.866;-4.222;2022-12-29T09:02:58;101049.00;;;24.30
44429;BMP180;30134;47.866;-4.222;2022-12-29T09:05:25;101052.00;;;24.30
44429;BMP180;30134;47.866;-4.222;2022-12-29T09:07:51;101057.00;;;24.30
44429;BMP180;30134;47.866;-4.222;2022-12-29T09:10:17;101058.00;;;24.30
44429;BMP180;30134;47.866;-4.222;2022-12-29T09:12:45;101046.00;;;24.30
44429;BMP180;30134;47.866;-4.222;2022-12-29T09:15:12;101057.00;;;24.30
44429;BMP180;30134;47.866;-4.222;2022-12-29T09:17:38;101047.00;;;24.30
44429;BMP180;30134;47.866;-4.222;2022-12-29T09:20:14;101049.00;;;24.30
44429;BMP180;30134;47.866;-4.222;2022-12-29T09:22:41;101056.00;;;24.30
44429;BMP180;30134;47.866;-4.222;2022-12-29T09:25:08;101060.00;;;24.20
44429;BMP180;30134;47.866;-4.222;2022-12-29T09:27:35;101065.00;;;24.20
44429;BMP180;30134;47.866;-4.222;2022-12-29T09:30:06;101063.00;;;24.20
44429;BMP180;30134;47.866;-4.222;2022-12-29T09:32:33;101071.00;;;24.20
44429;BMP180;30134;47.866;-4.222;2022-12-29T09:34:59;101059.00;;;24.20
44429;BMP180;30134;47.866;-4.222;2022-12-29T09:37:25;101061.00;;;24.20
44429;BMP180;30134;47.866;-4.222;2022-12-29T09:39:51;101070.00;;;24.20
44429;BMP180;30134;47.866;-4.222;2022-12-29T09:42:41;101073.00;;;24.20
44429;BMP180;30134;47.866;-4.222;2022-12-29T09:46:08;101080.00;;;24.20
44429;BMP180;30134;47.866;-4.222;2022-12-29T09:48:44;101080.00;;;24.20
44429;BMP180;30134;47.866;-4.222;2022-12-29T09:51:19;101090.00;;;24.20
44429;BMP180;30134;47.866;-4.222;2022-12-29T09:53:56;101078.00;;;24.20
44429;BMP180;30134;47.866;-4.222;2022-12-29T09:56:25;101071.00;;;24.20
44429;BMP180;30134;47.866;-4.222;2022-12-29T10:01:42;101082.00;;;24.20
44429;BMP180;30134;47.866;-4.222;2022-12-29T10:04:10;101082.00;;;24.20
44429;BMP180;30134;47.866;-4.222;2022-12-29T10:09:39;101085.00;;;24.20
44429;BMP180;30134;47.866;-4.222;2022-12-29T10:12:26;101089.00;;;24.20
44429;BMP180;30134;47.866;-4.222;2022-12-29T10:21:24;101108.00;;;24.20
44429;BMP180;30134;47.866;-4.222;2022-12-29T10:23:54;101105.00;;;24.20
44429;BMP180;30134;47.866;-4.222;2022-12-29T10:26:28;101111.00;;;24.20
44429;BMP180;30134;47.866;-4.222;2022-12-29T10:29:06;101114.00;;;24.20
44429;BMP180;30134;47.866;-4.222;2022-12-29T10:36:54;101119.00;;;24.10
44429;BMP180;30134;47.866;-4.222;2022-12-29T10:39:48;101117.00;;;24.10
44429;BMP180;30134;47.866;-4.222;2022-12-29T10:42:26;101119.00;;;24.10
44429;BMP180;30134;47.866;-4.222;2022-12-29T10:44:58;101122.00;;;24.10
44429;BMP180;30134;47.866;-4.222;2022-12-29T10:48:12;101106.00;;;24.10
44429;BMP180;30134;47.866;-4.222;2022-12-29T10:50:40;101115.00;;;24.10
44429;BMP180;30134;47.866;-4.222;2022-12-29T10:53:08;101121.00;;;24.10
44429;BMP180;30134;47.866;-4.222;2022-12-29T10:55:38;101124.00;;;24.10
44429;BMP180;30134;47.866;-4.222;2022-12-29T10:58:11;101115.00;;;24.10
44429;BMP180;30134;47.866;-4.222;2022-12-29T11:00:43;101118.00;;;24.10
44429;BMP180;30134;47.866;-4.222;2022-12-29T11:06:37;101122.00;;;24.10
44429;BMP180;30134;47.866;-4.222;2022-12-29T11:09:20;101128.00;;;24.10
44429;BMP180;30134;47.866;-4.222;2022-12-29T11:11:46;101126.00;;;24.10
44429;BMP180;30134;47.866;-4.222;2022-12-29T11:14:21;101117.00;;;24.10
44429;BMP180;30134;47.866;-4.222;2022-12-29T11:16:58;101114.00;;;24.10
44429;BMP180;30134;47.866;-4.222;2022-12-29T11:19:27;101115.00;;;24.10
44429;BMP180;30134;47.866;-4.222;2022-12-29T11:21:54;101115.00;;;24.10
44429;BMP180;30134;47.866;-4.222;2022-12-29T11:24:25;101111.00;;;23.90
44429;BMP180;30134;47.866;-4.222;2022-12-29T11:27:08;101113.00;;;23.70
44429;BMP180;30134;47.866;-4.222;2022-12-29T11:29:42;101107.00;;;23.40
44429;BMP180;30134;47.866;-4.222;2022-12-29T11:32:24;101113.00;;;23.10
44429;BMP180;30134;47.866;-4.222;2022-12-29T11:34:50;101110.00;;;23.10
44429;BMP180;30134;47.866;-4.222;2022-12-29T11:37:31;101102.00;;;23.20
44429;BMP180;30134;47.866;-4.222;2022-12-29T11:40:19;101118.00;;;23.30
44429;BMP180;30134;47.866;-4.222;2022-12-29T11:42:56;101107.00;;;23.40
44429;BMP180;30134;47.866;-4.222;2022-12-29T11:45:33;101114.00;;;23.50
44429;BMP180;30134;47.866;-4.222;2022-12-29T11:48:19;101115.00;;;23.60
44429;BMP180;30134;47.866;-4.222;2022-12-29T11:50:54;101108.00;;;23.70
44429;BMP180;30134;47.866;-4.222;2022-12-29T11:53:26;101107.00;;;23.80
44429;BMP180;30134;47.866;-4.222;2022-12-29T11:56:03;101114.00;;;23.90
44429;BMP180;30134;47.866;-4.222;2022-12-29T11:58:33;101109.00;;;24.00
44429;BMP180;30134;47.866;-4.222;2022-12-29T12:01:34;101103.00;;;24.00
44429;BMP180;30134;47.866;-4.222;2022-12-29T12:04:09;101107.00;;;23.90
44429;BMP180;30134;47.866;-4.222;2022-12-29T12:10:00;101095.00;;;23.70
44429;BMP180;30134;47.866;-4.222;2022-12-29T12:12:44;101115.00;;;23.70
44429;BMP180;30134;47.866;-4.222;2022-12-29T12:15:28;101107.00;;;23.60
44429;BMP180;30134;47.866;-4.222;2022-12-29T12:18:15;101112.00;;;23.70
44429;BMP180;30134;47.866;-4.222;2022-12-29T12:20:52;101108.00;;;23.70
44429;BMP180;30134;47.866;-4.222;2022-12-29T12:26:28;101109.00;;;23.70
44429;BMP180;30134;47.866;-4.222;2022-12-29T12:29:16;101104.00;;;23.70
44429;BMP180;30134;47.866;-4.222;2022-12-29T12:34:41;101120.00;;;23.70
44429;BMP180;30134;47.866;-4.222;2022-12-29T12:40:07;101117.00;;;23.80
44429;BMP180;30134;47.866;-4.222;2022-12-29T13:00:14;101122.00;;;24.10
44429;BMP180;30134;47.866;-4.222;2022-12-29T13:03:46;101120.00;;;24.10
44429;BMP180;30134;47.866;-4.222;2022-12-29T13:19:47;101091.00;;;24.40
44429;BMP180;30134;47.866;-4.222;2022-12-29T13:22:58;101092.00;;;24.40
44429;BMP180;30134;47.866;-4.222;2022-12-29T13:28:22;101078.00;;;24.50
44429;BMP180;30134;47.866;-4.222;2022-12-29T13:34:30;101103.00;;;24.60
44429;BMP180;30134;47.866;-4.222;2022-12-29T13:37:08;101096.00;;;24.60
44429;BMP180;30134;47.866;-4.222;2022-12-29T13:39:41;101091.00;;;24.60
44429;BMP180;30134;47.866;-4.222;2022-12-29T13:42:08;101090.00;;;24.70
44429;BMP180;30134;47.866;-4.222;2022-12-29T13:48:02;101082.00;;;24.70
44429;BMP180;30134;47.866;-4.222;2022-12-29T13:50:35;101093.00;;;24.70
44429;BMP180;30134;47.866;-4.222;2022-12-29T13:53:52;101085.00;;;24.80
44429;BMP180;30134;47.866;-4.222;2022-12-29T13:57:28;101084.00;;;24.80
44429;BMP180;30134;47.866;-4.222;2022-12-29T13:59:21;101089.00;;;24.80
44429;BMP180;30134;47.866;-4.222;2022-12-29T14:02:14;101089.00;;;24.90
44429;BMP180;30134;47.866;-4.222;2022-12-29T14:05:02;101087.00;;;24.90
44429;BMP180;30134;47.866;-4.222;2022-12-29T14:07:38;101083.00;;;24.90
44429;BMP180;30134;47.866;-4.222;2022-12-29T14:10:05;101094.00;;;24.90
44429;BMP180;30134;47.866;-4.222;2022-12-29T14:12:40;101082.00;;;24.90
44429;BMP180;30134;47.866;-4.222;2022-12-29T14:15:22;101082.00;;;25.00
44429;BMP180;30134;47.866;-4.222;2022-12-29T14:18:17;101082.00;;;25.00
44429;BMP180;30134;47.866;-4.222;2022-12-29T14:21:01;101092.00;;;25.00
44429;BMP180;30134;47.866;-4.222;2022-12-29T14:23:40;101080.00;;;25.00
44429;BMP180;30134;47.866;-4.222;2022-12-29T14:28:34;101079.00;;;25.00
44429;BMP180;30134;47.866;-4.222;2022-12-29T14:31:02;101072.00;;;25.10
44429;BMP180;30134;47.866;-4.222;2022-12-29T14:33:31;101067.00;;;25.10
44429;BMP180;30134;47.866;-4.222;2022-12-29T14:36:56;101069.00;;;25.10
44429;BMP180;30134;47.866;-4.222;2022-12-29T14:39:44;101076.00;;;25.10
44429;BMP180;30134;47.866;-4.222;2022-12-29T14:44:51;101067.00;;;25.20
44429;BMP180;30134;47.866;-4.222;2022-12-29T14:49:49;101083.00;;;25.30
44429;BMP180;30134;47.866;-4.222;2022-12-29T14:52:19;101072.00;;;25.30
44429;BMP180;30134;47.866;-4.222;2022-12-29T14:57:37;101080.00;;;25.30
44429;BMP180;30134;47.866;-4.222;2022-12-29T15:03:07;101083.00;;;25.30
44429;BMP180;30134;47.866;-4.222;2022-12-29T15:08:18;101089.00;;;25.40
44429;BMP180;30134;47.866;-4.222;2022-12-29T15:10:56;101088.00;;;25.40
44429;BMP180;30134;47.866;-4.222;2022-12-29T15:13:33;101091.00;;;25.40
44429;BMP180;30134;47.866;-4.222;2022-12-29T15:15:59;101105.00;;;25.40
44429;BMP180;30134;47.866;-4.222;2022-12-29T15:18:33;101104.00;;;25.40
44429;BMP180;30134;47.866;-4.222;2022-12-29T15:21:04;101103.00;;;25.40
44429;BMP180;30134;47.866;-4.222;2022-12-29T15:23:32;101105.00;;;25.40
44429;BMP180;30134;47.866;-4.222;2022-12-29T15:28:28;101101.00;;;25.30
44429;BMP180;30134;47.866;-4.222;2022-12-29T15:31:04;101100.00;;;25.30
44429;BMP180;30134;47.866;-4.222;2022-12-29T15:33:30;101106.00;;;25.30
44429;BMP180;30134;47.866;-4.222;2022-12-29T15:36:02;101110.00;;;25.30
44429;BMP180;30134;47.866;-4.222;2022-12-29T15:38:29;101111.00;;;25.20
44429;BMP180;30134;47.866;-4.222;2022-12-29T15:44:25;101110.00;;;25.20
44429;BMP180;30134;47.866;-4.222;2022-12-29T15:46:51;101116.00;;;25.20
44429;BMP180;30134;47.866;-4.222;2022-12-29T15:49:17;101117.00;;;25.10
44429;BMP180;30134;47.866;-4.222;2022-12-29T15:51:46;101116.00;;;25.10
44429;BMP180;30134;47.866;-4.222;2022-12-29T15:54:18;101117.00;;;25.10
44429;BMP180;30134;47.866;-4.222;2022-12-29T15:56:45;101114.00;;;25.10
44429;BMP180;30134;47.866;-4.222;2022-12-29T15:59:26;101105.00;;;25.10
44429;BMP180;30134;47.866;-4.222;2022-12-29T16:01:54;101109.00;;;25.00
44429;BMP180;30134;47.866;-4.222;2022-12-29T16:04:20;101117.00;;;25.00
44429;BMP180;30134;47.866;-4.222;2022-12-29T16:07:00;101119.00;;;25.00
44429;BMP180;30134;47.866;-4.222;2022-12-29T16:09:34;101121.00;;;25.00
44429;BMP180;30134;47.866;-4.222;2022-12-29T16:12:05;101126.00;;;25.00
44429;BMP180;30134;47.866;-4.222;2022-12-29T16:14:53;101129.00;;;25.00
44429;BMP180;30134;47.866;-4.222;2022-12-29T16:17:22;101134.00;;;25.00
44429;BMP180;30134;47.866;-4.222;2022-12-29T16:20:17;101132.00;;;24.90